sensor_id;sensor_type;location;lat;lon;timestamp;P1;durP1;ratioP1;P2;durP2;ratioP2
71503;SDS011;59323;50.874;7.028;2022-12-07T00:01:38;32.35;;;14.18;;
71503;SDS011;59323;50.874;7.028;2022-12-07T00:04:05;30.05;;;12.95;;
71503;SDS011;59323;50.874;7.028;2022-12-07T00:06:39;33.83;;;13.90;;
71503;SDS011;59323;50.874;7.028;2022-12-07T00:09:10;36.30;;;14.25;;
71503;SDS011;59323;50.874;7.028;2022-12-07T00:11:39;28.77;;;14.93;;
71503;SDS011;59323;50.874;7.028;2022-12-07T00:14:06;31.92;;;13.65;;
71503;SDS011;59323;50.874;7.028;2022-12-07T00:16:33;35.53;;;14.40;;
71503;SDS011;59323;50.874;7.028;2022-12-07T00:18:59;29.27;;;14.40;;
71503;SDS011;59323;50.874;7.028;2022-12-07T00:21:31;33.83;;;15.00;;
71503;SDS011;59323;50.874;7.028;2022-12-07T00:24:01;31.27;;;14.32;;
71503;SDS011;59323;50.874;7.028;2022-12-07T00:26:28;33.67;;;15.27;;
71503;SDS011;59323;50.874;7.028;2022-12-07T00:29:00;30.65;;;14.23;;
71503;SDS011;59323;50.874;7.028;2022-12-07T00:31:38;31.57;;;15.20;;
71503;SDS011;59323;50.874;7.028;2022-12-07T00:34:05;34.03;;;14.95;;
71503;SDS011;59323;50.874;7.028;2022-12-07T00:36:37;33.00;;;14.57;;
71503;SDS011;59323;50.874;7.028;2022-12-07T00:39:02;35.45;;;14.45;;
71503;SDS011;59323;50.874;7.028;2022-12-07T00:41:31;31.87;;;14.10;;
71503;SDS011;59323;50.874;7.028;2022-12-07T00:43:59;33.83;;;14.15;;
71503;SDS011;59323;50.874;7.028;2022-12-07T00:46:31;32.80;;;14.43;;
71503;SDS011;59323;50.874;7.028;2022-12-07T00:48:56;35.13;;;15.13;;
71503;SDS011;59323;50.874;7.028;2022-12-07T00:51:25;34.63;;;14.40;;
71503;SDS011;59323;50.874;7.028;2022-12-07T00:53:51;35.75;;;14.85;;
71503;SDS011;59323;50.874;7.028;2022-12-07T00:56:19;31.42;;;14.55;;
71503;SDS011;59323;50.874;7.028;2022-12-07T00:58:53;34.30;;;14.93;;
71503;SDS011;59323;50.874;7.028;2022-12-07T01:01:23;34.90;;;15.70;;
71503;SDS011;59323;50.874;7.028;2022-12-07T01:03:53;34.08;;;15.88;;
71503;SDS011;59323;50.874;7.028;2022-12-07T01:06:19;35.07;;;15.20;;
71503;SDS011;59323;50.874;7.028;2022-12-07T01:08:48;31.65;;;14.38;;
71503;SDS011;59323;50.874;7.028;2022-12-07T01:11:18;34.17;;;15.02;;
71503;SDS011;59323;50.874;7.028;2022-12-07T01:13:54;36.67;;;15.52;;
71503;SDS011;59323;50.874;7.028;2022-12-07T01:16:27;30.15;;;14.73;;
71503;SDS011;59323;50.874;7.028;2022-12-07T01:18:55;31.13;;;15.07;;
71503;SDS011;59323;50.874;7.028;2022-12-07T01:21:24;34.55;;;15.80;;
71503;SDS011;59323;50.874;7.028;2022-12-07T01:23:54;35.13;;;15.13;;
71503;SDS011;59323;50.874;7.028;2022-12-07T01:26:21;32.53;;;14.97;;
71503;SDS011;59323;50.874;7.028;2022-12-07T01:28:57;32.78;;;15.82;;
71503;SDS011;59323;50.874;7.028;2022-12-07T01:31:24;35.85;;;16.05;;
71503;SDS011;59323;50.874;7.028;2022-12-07T01:33:57;38.10;;;15.95;;
71503;SDS011;59323;50.874;7.028;2022-12-07T01:36:35;36.55;;;16.25;;
71503;SDS011;59323;50.874;7.028;2022-12-07T01:39:05;34.00;;;15.13;;
71503;SDS011;59323;50.874;7.028;2022-12-07T01:41:49;35.25;;;15.95;;
71503;SDS011;59323;50.874;7.028;2022-12-07T01:44:27;34.08;;;16.10;;
71503;SDS011;59323;50.874;7.028;2022-12-07T01:47:00;33.03;;;14.90;;
71503;SDS011;59323;50.874;7.028;2022-12-07T01:54:43;32.90;;;15.88;;
71503;SDS011;59323;50.874;7.028;2022-12-07T01:57:15;35.45;;;15.68;;
71503;SDS011;59323;50.874;7.028;2022-12-07T01:59:47;33.40;;;16.48;;
71503;SDS011;59323;50.874;7.028;2022-12-07T02:02:17;33.20;;;16.02;;
71503;SDS011;59323;50.874;7.028;2022-12-07T02:04:51;39.03;;;17.23;;
71503;SDS011;59323;50.874;7.028;2022-12-07T02:07:24;38.25;;;17.30;;
71503;SDS011;59323;50.874;7.028;2022-12-07T02:09:54;39.00;;;17.42;;
71503;SDS011;59323;50.874;7.028;2022-12-07T02:12:20;39.08;;;17.55;;
71503;SDS011;59323;50.874;7.028;2022-12-07T02:14:55;38.65;;;16.95;;
71503;SDS011;59323;50.874;7.028;2022-12-07T02:17:24;38.50;;;16.77;;
71503;SDS011;59323;50.874;7.028;2022-12-07T02:20:33;34.00;;;15.90;;
71503;SDS011;59323;50.874;7.028;2022-12-07T02:23:36;30.63;;;14.83;;
71503;SDS011;59323;50.874;7.028;2022-12-07T02:30:07;35.88;;;15.35;;
71503;SDS011;59323;50.874;7.028;2022-12-07T02:36:06;34.05;;;15.48;;
71503;SDS011;59323;50.874;7.028;2022-12-07T02:38:38;34.37;;;15.57;;
71503;SDS011;59323;50.874;7.028;2022-12-07T02:41:43;36.28;;;16.48;;
71503;SDS011;59323;50.874;7.028;2022-12-07T02:44:14;36.17;;;15.93;;
71503;SDS011;59323;50.874;7.028;2022-12-07T02:46:59;38.05;;;16.65;;
71503;SDS011;59323;50.874;7.028;2022-12-07T02:49:32;35.85;;;16.08;;
71503;SDS011;59323;50.874;7.028;2022-12-07T02:51:58;33.40;;;15.53;;
71503;SDS011;59323;50.874;7.028;2022-12-07T02:54:23;35.92;;;16.05;;
71503;SDS011;59323;50.874;7.028;2022-12-07T03:11:00;34.78;;;15.68;;
71503;SDS011;59323;50.874;7.028;2022-12-07T03:18:55;35.93;;;16.50;;
71503;SDS011;59323;50.874;7.028;2022-12-07T03:22:01;34.05;;;15.73;;
71503;SDS011;59323;50.874;7.028;2022-12-07T03:24:33;35.65;;;16.02;;
71503;SDS011;59323;50.874;7.028;2022-12-07T03:27:13;38.65;;;16.05;;
71503;SDS011;59323;50.874;7.028;2022-12-07T03:29:54;34.47;;;15.65;;
71503;SDS011;59323;50.874;7.028;2022-12-07T03:32:32;41.10;;;15.47;;
71503;SDS011;59323;50.874;7.028;2022-12-07T03:37:34;35.28;;;15.80;;
71503;SDS011;59323;50.874;7.028;2022-12-07T03:42:50;32.78;;;15.27;;
71503;SDS011;59323;50.874;7.028;2022-12-07T03:45:23;34.20;;;14.13;;
71503;SDS011;59323;50.874;7.028;2022-12-07T03:48:12;38.10;;;15.50;;
71503;SDS011;59323;50.874;7.028;2022-12-07T03:50:50;37.00;;;15.73;;
71503;SDS011;59323;50.874;7.028;2022-12-07T03:56:38;36.35;;;15.95;;
71503;SDS011;59323;50.874;7.028;2022-12-07T03:59:08;34.83;;;16.15;;
71503;SDS011;59323;50.874;7.028;2022-12-07T04:01:36;32.30;;;15.07;;
71503;SDS011;59323;50.874;7.028;2022-12-07T04:04:12;35.22;;;15.60;;
71503;SDS011;59323;50.874;7.028;2022-12-07T04:06:37;32.33;;;14.48;;
71503;SDS011;59323;50.874;7.028;2022-12-07T04:09:03;34.90;;;16.07;;
71503;SDS011;59323;50.874;7.028;2022-12-07T04:11:46;33.73;;;15.17;;
71503;SDS011;59323;50.874;7.028;2022-12-07T04:14:11;32.45;;;14.18;;
71503;SDS011;59323;50.874;7.028;2022-12-07T04:16:54;34.17;;;14.63;;
71503;SDS011;59323;50.874;7.028;2022-12-07T04:19:30;36.63;;;14.48;;
71503;SDS011;59323;50.874;7.028;2022-12-07T04:22:05;34.20;;;14.67;;
71503;SDS011;59323;50.874;7.028;2022-12-07T04:24:39;32.35;;;14.02;;
71503;SDS011;59323;50.874;7.028;2022-12-07T04:27:04;37.63;;;15.20;;
71503;SDS011;59323;50.874;7.028;2022-12-07T04:29:35;33.25;;;14.10;;
71503;SDS011;59323;50.874;7.028;2022-12-07T04:32:01;36.10;;;15.13;;
71503;SDS011;59323;50.874;7.028;2022-12-07T04:34:26;27.73;;;13.20;;
71503;SDS011;59323;50.874;7.028;2022-12-07T04:36:52;32.67;;;13.93;;
71503;SDS011;59323;50.874;7.028;2022-12-07T04:39:20;30.80;;;13.30;;
71503;SDS011;59323;50.874;7.028;2022-12-07T04:41:50;35.65;;;14.95;;
71503;SDS011;59323;50.874;7.028;2022-12-07T04:44:17;33.03;;;14.37;;
71503;SDS011;59323;50.874;7.028;2022-12-07T04:46:43;33.03;;;14.50;;
71503;SDS011;59323;50.874;7.028;2022-12-07T04:49:25;33.83;;;14.23;;
71503;SDS011;59323;50.874;7.028;2022-12-07T04:51:54;32.13;;;13.90;;
71503;SDS011;59323;50.874;7.028;2022-12-07T04:54:22;34.33;;;14.15;;
71503;SDS011;59323;50.874;7.028;2022-12-07T04:56:48;31.03;;;13.53;;
71503;SDS011;59323;50.874;7.028;2022-12-07T04:59:15;31.03;;;14.47;;
71503;SDS011;59323;50.874;7.028;2022-12-07T05:01:41;35.35;;;14.20;;
71503;SDS011;59323;50.874;7.028;2022-12-07T05:04:15;34.00;;;13.90;;
71503;SDS011;59323;50.874;7.028;2022-12-07T05:06:41;31.40;;;13.23;;
71503;SDS011;59323;50.874;7.028;2022-12-07T05:09:06;33.27;;;14.67;;
71503;SDS011;59323;50.874;7.028;2022-12-07T05:11:32;35.88;;;14.15;;
71503;SDS011;59323;50.874;7.028;2022-12-07T05:16:32;31.53;;;14.27;;
71503;SDS011;59323;50.874;7.028;2022-12-07T05:19:04;31.15;;;14.25;;
71503;SDS011;59323;50.874;7.028;2022-12-07T05:21:30;32.22;;;13.98;;
71503;SDS011;59323;50.874;7.028;2022-12-07T05:24:08;34.40;;;14.60;;
71503;SDS011;59323;50.874;7.028;2022-12-07T05:26:59;35.03;;;14.60;;
71503;SDS011;59323;50.874;7.028;2022-12-07T05:29:59;36.60;;;14.70;;
71503;SDS011;59323;50.874;7.028;2022-12-07T05:32:49;36.07;;;14.70;;
71503;SDS011;59323;50.874;7.028;2022-12-07T05:35:20;34.90;;;13.95;;
71503;SDS011;59323;50.874;7.028;2022-12-07T05:37:55;38.42;;;14.90;;
71503;SDS011;59323;50.874;7.028;2022-12-07T05:42:58;32.22;;;14.02;;
71503;SDS011;59323;50.874;7.028;2022-12-07T05:45:23;36.70;;;17.00;;
71503;SDS011;59323;50.874;7.028;2022-12-07T05:47:49;31.37;;;14.27;;
71503;SDS011;59323;50.874;7.028;2022-12-07T05:50:14;36.47;;;15.80;;
71503;SDS011;59323;50.874;7.028;2022-12-07T05:52:40;33.67;;;15.40;;
71503;SDS011;59323;50.874;7.028;2022-12-07T05:55:08;33.83;;;14.93;;
71503;SDS011;59323;50.874;7.028;2022-12-07T05:57:33;35.17;;;14.53;;
71503;SDS011;59323;50.874;7.028;2022-12-07T05:59:59;34.58;;;13.57;;
71503;SDS011;59323;50.874;7.028;2022-12-07T06:02:24;33.60;;;14.23;;
71503;SDS011;59323;50.874;7.028;2022-12-07T06:04:49;32.97;;;15.27;;
71503;SDS011;59323;50.874;7.028;2022-12-07T06:07:15;31.10;;;12.27;;
71503;SDS011;59323;50.874;7.028;2022-12-07T06:09:41;30.20;;;12.93;;
71503;SDS011;59323;50.874;7.028;2022-12-07T06:12:06;35.33;;;14.40;;
71503;SDS011;59323;50.874;7.028;2022-12-07T06:14:56;38.20;;;14.35;;
71503;SDS011;59323;50.874;7.028;2022-12-07T06:17:22;30.02;;;13.52;;
71503;SDS011;59323;50.874;7.028;2022-12-07T06:19:47;33.03;;;13.47;;
71503;SDS011;59323;50.874;7.028;2022-12-07T06:22:13;31.23;;;12.93;;
71503;SDS011;59323;50.874;7.028;2022-12-07T06:24:39;30.50;;;12.95;;
71503;SDS011;59323;50.874;7.028;2022-12-07T06:27:05;28.03;;;12.33;;
71503;SDS011;59323;50.874;7.028;2022-12-07T06:29:30;32.22;;;12.18;;
71503;SDS011;59323;50.874;7.028;2022-12-07T06:31:56;28.07;;;12.40;;
71503;SDS011;59323;50.874;7.028;2022-12-07T06:34:22;34.80;;;13.68;;
71503;SDS011;59323;50.874;7.028;2022-12-07T06:36:49;31.60;;;13.18;;
71503;SDS011;59323;50.874;7.028;2022-12-07T06:39:24;33.53;;;13.40;;
71503;SDS011;59323;50.874;7.028;2022-12-07T06:41:50;34.00;;;14.93;;
71503;SDS011;59323;50.874;7.028;2022-12-07T06:44:19;36.27;;;14.43;;
71503;SDS011;59323;50.874;7.028;2022-12-07T06:46:45;31.02;;;12.60;;
71503;SDS011;59323;50.874;7.028;2022-12-07T06:49:11;30.45;;;13.40;;
71503;SDS011;59323;50.874;7.028;2022-12-07T06:51:37;30.87;;;13.60;;
71503;SDS011;59323;50.874;7.028;2022-12-07T06:54:11;38.78;;;14.18;;
71503;SDS011;59323;50.874;7.028;2022-12-07T06:56:37;30.95;;;14.02;;
71503;SDS011;59323;50.874;7.028;2022-12-07T06:59:03;34.20;;;14.77;;
71503;SDS011;59323;50.874;7.028;2022-12-07T07:01:30;32.10;;;13.07;;
71503;SDS011;59323;50.874;7.028;2022-12-07T07:03:56;36.43;;;13.93;;
71503;SDS011;59323;50.874;7.028;2022-12-07T07:06:21;31.03;;;13.27;;
71503;SDS011;59323;50.874;7.028;2022-12-07T07:08:46;33.17;;;13.83;;
71503;SDS011;59323;50.874;7.028;2022-12-07T07:11:12;33.80;;;14.03;;
71503;SDS011;59323;50.874;7.028;2022-12-07T07:13:37;36.53;;;14.07;;
71503;SDS011;59323;50.874;7.028;2022-12-07T07:16:03;30.60;;;13.85;;
71503;SDS011;59323;50.874;7.028;2022-12-07T07:18:29;38.63;;;15.85;;
71503;SDS011;59323;50.874;7.028;2022-12-07T07:20:57;39.03;;;15.20;;
71503;SDS011;59323;50.874;7.028;2022-12-07T07:23:25;36.97;;;14.82;;
71503;SDS011;59323;50.874;7.028;2022-12-07T07:25:51;37.07;;;14.53;;
71503;SDS011;59323;50.874;7.028;2022-12-07T07:28:16;34.22;;;15.00;;
71503;SDS011;59323;50.874;7.028;2022-12-07T07:30:42;33.03;;;15.07;;
71503;SDS011;59323;50.874;7.028;2022-12-07T07:33:07;32.73;;;14.60;;
71503;SDS011;59323;50.874;7.028;2022-12-07T07:35:34;36.47;;;16.08;;
71503;SDS011;59323;50.874;7.028;2022-12-07T07:38:00;36.43;;;15.57;;
71503;SDS011;59323;50.874;7.028;2022-12-07T07:40:26;36.03;;;15.63;;
71503;SDS011;59323;50.874;7.028;2022-12-07T07:42:53;33.55;;;14.18;;
71503;SDS011;59323;50.874;7.028;2022-12-07T07:45:20;36.15;;;14.35;;
71503;SDS011;59323;50.874;7.028;2022-12-07T07:47:47;35.03;;;15.40;;
71503;SDS011;59323;50.874;7.028;2022-12-07T07:50:13;37.63;;;14.10;;
71503;SDS011;59323;50.874;7.028;2022-12-07T07:52:39;35.88;;;14.32;;
71503;SDS011;59323;50.874;7.028;2022-12-07T07:55:07;39.28;;;16.67;;
71503;SDS011;59323;50.874;7.028;2022-12-07T07:57:36;36.63;;;15.20;;
71503;SDS011;59323;50.874;7.028;2022-12-07T08:00:09;34.05;;;14.52;;
71503;SDS011;59323;50.874;7.028;2022-12-07T08:02:39;37.28;;;14.98;;
71503;SDS011;59323;50.874;7.028;2022-12-07T08:05:07;35.97;;;15.70;;
71503;SDS011;59323;50.874;7.028;2022-12-07T08:07:33;34.43;;;15.23;;
71503;SDS011;59323;50.874;7.028;2022-12-07T08:09:59;34.93;;;14.90;;
71503;SDS011;59323;50.874;7.028;2022-12-07T08:12:24;36.80;;;15.63;;
71503;SDS011;59323;50.874;7.028;2022-12-07T08:14:49;35.57;;;15.23;;
71503;SDS011;59323;50.874;7.028;2022-12-07T08:17:15;36.33;;;15.23;;
71503;SDS011;59323;50.874;7.028;2022-12-07T08:19:40;40.00;;;15.57;;
71503;SDS011;59323;50.874;7.028;2022-12-07T08:22:09;40.97;;;16.70;;
71503;SDS011;59323;50.874;7.028;2022-12-07T08:24:35;37.37;;;16.10;;
71503;SDS011;59323;50.874;7.028;2022-12-07T08:27:03;37.50;;;14.98;;
71503;SDS011;59323;50.874;7.028;2022-12-07T08:29:29;34.13;;;15.37;;
71503;SDS011;59323;50.874;7.028;2022-12-07T08:31:54;39.40;;;15.43;;
71503;SDS011;59323;50.874;7.028;2022-12-07T08:34:20;37.77;;;16.87;;
71503;SDS011;59323;50.874;7.028;2022-12-07T08:36:48;39.22;;;16.23;;
71503;SDS011;59323;50.874;7.028;2022-12-07T08:39:16;34.77;;;14.73;;
71503;SDS011;59323;50.874;7.028;2022-12-07T08:41:41;37.25;;;14.73;;
71503;SDS011;59323;50.874;7.028;2022-12-07T08:44:07;35.17;;;13.97;;
71503;SDS011;59323;50.874;7.028;2022-12-07T08:46:34;36.33;;;14.40;;
71503;SDS011;59323;50.874;7.028;2022-12-07T08:49:13;33.50;;;13.80;;
71503;SDS011;59323;50.874;7.028;2022-12-07T08:51:43;33.33;;;14.27;;
71503;SDS011;59323;50.874;7.028;2022-12-07T08:54:15;33.30;;;14.27;;
71503;SDS011;59323;50.874;7.028;2022-12-07T08:56:43;33.77;;;14.27;;
71503;SDS011;59323;50.874;7.028;2022-12-07T08:59:10;30.63;;;12.73;;
71503;SDS011;59323;50.874;7.028;2022-12-07T09:01:39;31.67;;;12.50;;
71503;SDS011;59323;50.874;7.028;2022-12-07T09:04:05;27.83;;;12.67;;
71503;SDS011;59323;50.874;7.028;2022-12-07T09:06:30;30.93;;;13.40;;
71503;SDS011;59323;50.874;7.028;2022-12-07T09:08:56;31.05;;;12.43;;
71503;SDS011;59323;50.874;7.028;2022-12-07T09:11:25;30.43;;;12.67;;
71503;SDS011;59323;50.874;7.028;2022-12-07T09:13:51;30.58;;;11.63;;
71503;SDS011;59323;50.874;7.028;2022-12-07T09:16:21;26.97;;;11.90;;
71503;SDS011;59323;50.874;7.028;2022-12-07T09:18:46;27.08;;;11.38;;
71503;SDS011;59323;50.874;7.028;2022-12-07T09:21:12;25.30;;;11.33;;
71503;SDS011;59323;50.874;7.028;2022-12-07T09:23:37;31.30;;;11.67;;
71503;SDS011;59323;50.874;7.028;2022-12-07T09:26:03;29.70;;;12.55;;
71503;SDS011;59323;50.874;7.028;2022-12-07T09:28:32;33.55;;;12.85;;
71503;SDS011;59323;50.874;7.028;2022-12-07T09:30:58;29.80;;;12.73;;
71503;SDS011;59323;50.874;7.028;2022-12-07T09:33:23;30.50;;;12.23;;
71503;SDS011;59323;50.874;7.028;2022-12-07T09:35:49;29.70;;;12.27;;
71503;SDS011;59323;50.874;7.028;2022-12-07T09:38:16;27.25;;;11.32;;
71503;SDS011;59323;50.874;7.028;2022-12-07T09:40:42;30.38;;;11.68;;
71503;SDS011;59323;50.874;7.028;2022-12-07T09:43:15;27.67;;;11.57;;
71503;SDS011;59323;50.874;7.028;2022-12-07T09:45:43;27.92;;;11.70;;
71503;SDS011;59323;50.874;7.028;2022-12-07T09:48:17;26.48;;;12.30;;
71503;SDS011;59323;50.874;7.028;2022-12-07T09:50:44;26.60;;;11.68;;
71503;SDS011;59323;50.874;7.028;2022-12-07T09:53:15;27.25;;;11.25;;
71503;SDS011;59323;50.874;7.028;2022-12-07T09:55:47;23.97;;;10.67;;
71503;SDS011;59323;50.874;7.028;2022-12-07T09:58:17;31.77;;;11.43;;
71503;SDS011;59323;50.874;7.028;2022-12-07T10:00:47;31.02;;;11.85;;
71503;SDS011;59323;50.874;7.028;2022-12-07T10:03:17;29.73;;;11.60;;
71503;SDS011;59323;50.874;7.028;2022-12-07T10:05:46;29.98;;;11.93;;
71503;SDS011;59323;50.874;7.028;2022-12-07T10:08:16;31.35;;;12.45;;
71503;SDS011;59323;50.874;7.028;2022-12-07T10:10:50;28.33;;;11.60;;
71503;SDS011;59323;50.874;7.028;2022-12-07T10:14:10;25.98;;;12.60;;
71503;SDS011;59323;50.874;7.028;2022-12-07T10:18:49;31.85;;;11.55;;
71503;SDS011;59323;50.874;7.028;2022-12-07T10:21:25;29.42;;;12.13;;
71503;SDS011;59323;50.874;7.028;2022-12-07T10:26:50;28.40;;;12.10;;
71503;SDS011;59323;50.874;7.028;2022-12-07T10:31:52;24.25;;;9.00;;
71503;SDS011;59323;50.874;7.028;2022-12-07T10:34:28;20.30;;;8.30;;
71503;SDS011;59323;50.874;7.028;2022-12-07T10:39:48;21.23;;;8.40;;
71503;SDS011;59323;50.874;7.028;2022-12-07T10:45:17;16.83;;;6.78;;
71503;SDS011;59323;50.874;7.028;2022-12-07T10:53:14;19.15;;;7.28;;
71503;SDS011;59323;50.874;7.028;2022-12-07T11:01:02;22.10;;;7.80;;
71503;SDS011;59323;50.874;7.028;2022-12-07T11:03:58;18.03;;;6.17;;
71503;SDS011;59323;50.874;7.028;2022-12-07T11:06:54;19.25;;;7.00;;
71503;SDS011;59323;50.874;7.028;2022-12-07T11:09:45;19.08;;;7.38;;
71503;SDS011;59323;50.874;7.028;2022-12-07T11:12:23;18.67;;;6.45;;
71503;SDS011;59323;50.874;7.028;2022-12-07T11:15:19;15.25;;;6.20;;
71503;SDS011;59323;50.874;7.028;2022-12-07T11:18:30;15.93;;;5.73;;
71503;SDS011;59323;50.874;7.028;2022-12-07T11:21:07;19.67;;;5.78;;
71503;SDS011;59323;50.874;7.028;2022-12-07T11:34:39;18.05;;;6.35;;
71503;SDS011;59323;50.874;7.028;2022-12-07T11:37:21;19.25;;;5.63;;
71503;SDS011;59323;50.874;7.028;2022-12-07T11:39:55;13.25;;;4.70;;
71503;SDS011;59323;50.874;7.028;2022-12-07T11:42:46;11.02;;;4.55;;
71503;SDS011;59323;50.874;7.028;2022-12-07T11:45:22;14.43;;;5.03;;
71503;SDS011;59323;50.874;7.028;2022-12-07T11:48:10;13.55;;;4.97;;
71503;SDS011;59323;50.874;7.028;2022-12-07T11:50:46;14.98;;;4.80;;
71503;SDS011;59323;50.874;7.028;2022-12-07T11:55:56;17.63;;;4.95;;
71503;SDS011;59323;50.874;7.028;2022-12-07T12:03:58;13.80;;;4.25;;
71503;SDS011;59323;50.874;7.028;2022-12-07T12:06:31;14.98;;;4.32;;
71503;SDS011;59323;50.874;7.028;2022-12-07T12:14:48;10.40;;;3.00;;
71503;SDS011;59323;50.874;7.028;2022-12-07T12:20:29;12.13;;;2.75;;
71503;SDS011;59323;50.874;7.028;2022-12-07T12:24:00;11.60;;;3.13;;
71503;SDS011;59323;50.874;7.028;2022-12-07T12:26:05;13.23;;;2.90;;
71503;SDS011;59323;50.874;7.028;2022-12-07T12:28:35;10.70;;;3.22;;
71503;SDS011;59323;50.874;7.028;2022-12-07T12:44:01;15.82;;;5.00;;
71503;SDS011;59323;50.874;7.028;2022-12-07T12:46:37;15.53;;;4.90;;
71503;SDS011;59323;50.874;7.028;2022-12-07T12:51:42;16.60;;;5.22;;
71503;SDS011;59323;50.874;7.028;2022-12-07T12:54:11;16.92;;;5.57;;
71503;SDS011;59323;50.874;7.028;2022-12-07T13:00:14;16.07;;;5.40;;
71503;SDS011;59323;50.874;7.028;2022-12-07T13:02:35;13.77;;;5.25;;
71503;SDS011;59323;50.874;7.028;2022-12-07T13:15:38;17.85;;;5.93;;
71503;SDS011;59323;50.874;7.028;2022-12-07T13:20:57;16.50;;;5.70;;
71503;SDS011;59323;50.874;7.028;2022-12-07T13:26:22;15.93;;;5.07;;
71503;SDS011;59323;50.874;7.028;2022-12-07T13:29:12;14.35;;;5.63;;
71503;SDS011;59323;50.874;7.028;2022-12-07T13:31:41;15.50;;;5.63;;
71503;SDS011;59323;50.874;7.028;2022-12-07T13:36:56;15.73;;;5.65;;
71503;SDS011;59323;50.874;7.028;2022-12-07T13:39:25;16.30;;;4.93;;
71503;SDS011;59323;50.874;7.028;2022-12-07T13:41:52;14.82;;;5.07;;
71503;SDS011;59323;50.874;7.028;2022-12-07T13:44:23;16.35;;;5.65;;
71503;SDS011;59323;50.874;7.028;2022-12-07T13:46:55;19.77;;;5.95;;
71503;SDS011;59323;50.874;7.028;2022-12-07T13:49:28;19.27;;;6.40;;
71503;SDS011;59323;50.874;7.028;2022-12-07T13:51:56;17.47;;;5.47;;
71503;SDS011;59323;50.874;7.028;2022-12-07T13:55:05;18.77;;;6.10;;
71503;SDS011;59323;50.874;7.028;2022-12-07T13:57:39;17.60;;;6.28;;
71503;SDS011;59323;50.874;7.028;2022-12-07T14:00:06;22.90;;;6.65;;
71503;SDS011;59323;50.874;7.028;2022-12-07T14:05:29;16.40;;;6.90;;
71503;SDS011;59323;50.874;7.028;2022-12-07T14:08:00;19.10;;;6.75;;
71503;SDS011;59323;50.874;7.028;2022-12-07T14:10:28;17.10;;;6.28;;
71503;SDS011;59323;50.874;7.028;2022-12-07T14:16:17;14.10;;;5.38;;
71503;SDS011;59323;50.874;7.028;2022-12-07T14:18:47;15.17;;;4.80;;
71503;SDS011;59323;50.874;7.028;2022-12-07T14:26:42;13.77;;;5.63;;
71503;SDS011;59323;50.874;7.028;2022-12-07T14:29:22;14.23;;;6.10;;
71503;SDS011;59323;50.874;7.028;2022-12-07T14:31:56;16.63;;;5.60;;
71503;SDS011;59323;50.874;7.028;2022-12-07T14:34:24;14.48;;;5.45;;
71503;SDS011;59323;50.874;7.028;2022-12-07T14:36:50;13.60;;;5.50;;
71503;SDS011;59323;50.874;7.028;2022-12-07T14:39:16;15.33;;;5.60;;
71503;SDS011;59323;50.874;7.028;2022-12-07T14:41:41;16.20;;;5.82;;
71503;SDS011;59323;50.874;7.028;2022-12-07T14:44:16;16.50;;;6.03;;
71503;SDS011;59323;50.874;7.028;2022-12-07T14:46:46;12.77;;;5.43;;
71503;SDS011;59323;50.874;7.028;2022-12-07T14:49:12;15.97;;;6.53;;
71503;SDS011;59323;50.874;7.028;2022-12-07T14:51:38;14.73;;;5.85;;
71503;SDS011;59323;50.874;7.028;2022-12-07T14:54:06;17.97;;;6.27;;
71503;SDS011;59323;50.874;7.028;2022-12-07T14:56:37;16.35;;;6.13;;
71503;SDS011;59323;50.874;7.028;2022-12-07T14:59:03;16.37;;;6.37;;
71503;SDS011;59323;50.874;7.028;2022-12-07T15:01:28;13.48;;;5.75;;
71503;SDS011;59323;50.874;7.028;2022-12-07T15:03:54;12.27;;;5.83;;
71503;SDS011;59323;50.874;7.028;2022-12-07T15:06:19;13.93;;;6.20;;
71503;SDS011;59323;50.874;7.028;2022-12-07T15:08:44;14.17;;;6.00;;
71503;SDS011;59323;50.874;7.028;2022-12-07T15:11:12;17.90;;;7.07;;
71503;SDS011;59323;50.874;7.028;2022-12-07T15:13:39;17.57;;;7.30;;
71503;SDS011;59323;50.874;7.028;2022-12-07T15:16:23;17.05;;;6.55;;
71503;SDS011;59323;50.874;7.028;2022-12-07T15:18:49;19.63;;;8.00;;
71503;SDS011;59323;50.874;7.028;2022-12-07T15:21:14;22.13;;;7.80;;
71503;SDS011;59323;50.874;7.028;2022-12-07T15:23:40;20.05;;;8.40;;
71503;SDS011;59323;50.874;7.028;2022-12-07T15:26:06;20.50;;;9.52;;
71503;SDS011;59323;50.874;7.028;2022-12-07T15:28:33;25.57;;;9.27;;
71503;SDS011;59323;50.874;7.028;2022-12-07T15:30:58;24.45;;;10.35;;
71503;SDS011;59323;50.874;7.028;2022-12-07T15:33:24;20.30;;;9.07;;
71503;SDS011;59323;50.874;7.028;2022-12-07T15:35:49;21.45;;;9.10;;
71503;SDS011;59323;50.874;7.028;2022-12-07T15:38:15;18.77;;;8.83;;
71503;SDS011;59323;50.874;7.028;2022-12-07T15:40:40;18.57;;;7.90;;
71503;SDS011;59323;50.874;7.028;2022-12-07T15:43:07;21.00;;;8.07;;
71503;SDS011;59323;50.874;7.028;2022-12-07T15:45:54;17.73;;;7.90;;
71503;SDS011;59323;50.874;7.028;2022-12-07T15:48:19;16.60;;;8.43;;
71503;SDS011;59323;50.874;7.028;2022-12-07T15:50:44;20.75;;;8.73;;
71503;SDS011;59323;50.874;7.028;2022-12-07T15:53:10;20.43;;;8.30;;
71503;SDS011;59323;50.874;7.028;2022-12-07T15:55:37;15.20;;;8.43;;
71503;SDS011;59323;50.874;7.028;2022-12-07T15:58:03;23.40;;;8.98;;
71503;SDS011;59323;50.874;7.028;2022-12-07T16:00:29;24.73;;;9.60;;
71503;SDS011;59323;50.874;7.028;2022-12-07T16:02:54;25.73;;;8.87;;
71503;SDS011;59323;50.874;7.028;2022-12-07T16:05:19;20.53;;;9.10;;
71503;SDS011;59323;50.874;7.028;2022-12-07T16:07:45;18.90;;;8.00;;
71503;SDS011;59323;50.874;7.028;2022-12-07T16:10:12;16.30;;;7.88;;
71503;SDS011;59323;50.874;7.028;2022-12-07T16:12:37;18.30;;;8.07;;
71503;SDS011;59323;50.874;7.028;2022-12-07T16:15:03;18.83;;;8.73;;
71503;SDS011;59323;50.874;7.028;2022-12-07T16:17:29;17.25;;;7.90;;
71503;SDS011;59323;50.874;7.028;2022-12-07T16:19:54;15.60;;;7.27;;
71503;SDS011;59323;50.874;7.028;2022-12-07T16:22:20;15.95;;;7.68;;
71503;SDS011;59323;50.874;7.028;2022-12-07T16:24:45;13.97;;;6.70;;
71503;SDS011;59323;50.874;7.028;2022-12-07T16:27:11;18.07;;;7.60;;
71503;SDS011;59323;50.874;7.028;2022-12-07T16:29:36;17.93;;;7.37;;
71503;SDS011;59323;50.874;7.028;2022-12-07T16:32:01;18.53;;;7.53;;
71503;SDS011;59323;50.874;7.028;2022-12-07T16:34:27;17.97;;;7.93;;
71503;SDS011;59323;50.874;7.028;2022-12-07T16:36:52;20.00;;;7.47;;
71503;SDS011;59323;50.874;7.028;2022-12-07T16:39:18;16.17;;;6.85;;
71503;SDS011;59323;50.874;7.028;2022-12-07T16:41:43;17.40;;;7.00;;
71503;SDS011;59323;50.874;7.028;2022-12-07T16:44:10;16.37;;;7.03;;
71503;SDS011;59323;50.874;7.028;2022-12-07T16:46:37;15.05;;;6.50;;
71503;SDS011;59323;50.874;7.028;2022-12-07T16:49:03;16.85;;;6.78;;
71503;SDS011;59323;50.874;7.028;2022-12-07T16:51:29;11.60;;;6.05;;
71503;SDS011;59323;50.874;7.028;2022-12-07T16:53:54;15.43;;;6.43;;
71503;SDS011;59323;50.874;7.028;2022-12-07T16:56:20;17.30;;;6.23;;
71503;SDS011;59323;50.874;7.028;2022-12-07T16:58:45;15.02;;;6.55;;
71503;SDS011;59323;50.874;7.028;2022-12-07T17:01:13;15.40;;;5.93;;
71503;SDS011;59323;50.874;7.028;2022-12-07T17:03:43;13.13;;;5.33;;
71503;SDS011;59323;50.874;7.028;2022-12-07T17:06:13;12.52;;;4.97;;
71503;SDS011;59323;50.874;7.028;2022-12-07T17:08:41;13.90;;;5.63;;
71503;SDS011;59323;50.874;7.028;2022-12-07T17:11:13;11.88;;;4.85;;
71503;SDS011;59323;50.874;7.028;2022-12-07T17:13:46;10.02;;;4.50;;